Time;durP1;ratioP1;P1;durP2;ratioP2;P2;SDS_P1;SDS_P2;PMS_P1;PMS_P2;Temp;Humidity;BMP_temperature;BMP_pressure;BME280_temperature;BME280_humidity;BME280_pressure;Samples;Min_cycle;Max_cycle;Signal;HPM_P1;HPM_P2
2023/05/03 00:01:40;;;;;;;;;;;7.01;20.13;;;;;;2687209;76;20279;-96
2023/05/03 00:05:11;;;;;;;;;;;6.95;19.57;;;;;;2686726;76;20298;-95
2023/05/03 00:08:38;;;;;;;;;;;6.89;19.34;;;;;;2685854;76;20505;-96
2023/05/03 00:12:06;;;;;;;;;;;6.84;19.25;;;;;;2687291;76;20225;-96
2023/05/03 00:15:34;;;;;;;;;;;6.82;19.42;;;;;;2687476;76;20275;-96
2023/05/03 00:19:02;;;;;;;;;;;6.80;19.26;;;;;;2687782;76;20345;-96
2023/05/03 00:22:30;;;;;;;;;;;6.75;18.95;;;;;;2686354;76;20228;-95
2023/05/03 00:25:59;;;;;;;;;;;6.74;18.79;;;;;;2686970;76;20263;-96
2023/05/03 00:29:27;;;;;;;;;;;6.69;18.77;;;;;;2687228;76;20282;-96
2023/05/03 00:32:55;;;;;;;;;;;6.60;19.41;;;;;;2686476;76;20260;-96
2023/05/03 00:36:23;;;;;;;;;;;6.58;19.89;;;;;;2686840;76;20437;-95
2023/05/03 00:39:52;;;;;;;;;;;6.58;19.84;;;;;;2687624;76;20307;-95
2023/05/03 00:43:20;;;;;;;;;;;6.56;19.56;;;;;;2687406;76;20306;-95
2023/05/03 00:46:48;;;;;;;;;;;6.56;19.80;;;;;;2687210;76;20291;-95
2023/05/03 00:50:19;;;;;;;;;;;6.54;19.50;;;;;;2687382;76;20299;-96
2023/05/03 00:53:47;;;;;;;;;;;6.56;19.54;;;;;;2686565;76;20286;-95
2023/05/03 00:57:15;;;;;;;;;;;6.57;19.57;;;;;;2687667;76;20291;-95
2023/05/03 01:00:44;;;;;;;;;;;6.51;19.38;;;;;;2687133;76;20305;-95
2023/05/03 01:04:12;;;;;;;;;;;6.50;19.45;;;;;;2687605;76;20289;-96
2023/05/03 01:07:45;;;;;;;;;;;6.53;19.49;;;;;;2687559;76;20296;-96
2023/05/03 01:11:24;;;;;;;;;;;6.54;19.53;;;;;;2686884;76;20278;-95
2023/05/03 01:14:57;;;;;;;;;;;6.58;20.12;;;;;;2687150;76;20269;-96
2023/05/03 01:18:22;;;;;;;;;;;6.68;20.63;;;;;;2687433;76;20226;-96
2023/05/03 01:21:51;;;;;;;;;;;6.73;21.10;;;;;;2686950;76;20281;-96
2023/05/03 01:25:22;;;;;;;;;;;6.80;21.40;;;;;;2687290;76;20284;-95
2023/05/03 01:28:50;;;;;;;;;;;6.85;21.93;;;;;;2687109;76;20259;-96
2023/05/03 01:32:18;;;;;;;;;;;6.96;22.43;;;;;;2687038;76;20294;-96
2023/05/03 01:35:46;;;;;;;;;;;7.04;22.76;;;;;;2687198;76;20451;-96
2023/05/03 01:39:15;;;;;;;;;;;7.08;23.06;;;;;;2687011;76;20510;-96
2023/05/03 01:42:43;;;;;;;;;;;7.10;23.52;;;;;;2686434;76;20307;-96
2023/05/03 01:46:12;;;;;;;;;;;7.15;24.02;;;;;;2686533;76;20256;-95
2023/05/03 01:49:40;;;;;;;;;;;7.15;23.72;;;;;;2686667;76;20267;-96
2023/05/03 01:53:11;;;;;;;;;;;7.16;23.84;;;;;;2685864;76;20255;-95
2023/05/03 01:56:40;;;;;;;;;;;7.07;23.27;;;;;;2686207;76;20268;-96
2023/05/03 02:00:08;;;;;;;;;;;6.88;22.89;;;;;;2687048;76;20286;-96
2023/05/03 02:03:39;;;;;;;;;;;6.84;23.27;;;;;;2686706;76;20295;-96
2023/05/03 02:07:06;;;;;;;;;;;6.76;23.08;;;;;;2686319;76;20244;-96
2023/05/03 02:10:34;;;;;;;;;;;6.84;23.88;;;;;;2686952;76;20282;-95
2023/05/03 02:14:02;;;;;;;;;;;6.86;23.81;;;;;;2686537;76;20248;-95
2023/05/03 02:17:31;;;;;;;;;;;6.89;23.63;;;;;;2687100;76;20510;-96
2023/05/03 02:20:59;;;;;;;;;;;6.85;23.12;;;;;;2686254;76;20277;-96
2023/05/03 02:24:28;;;;;;;;;;;6.86;23.37;;;;;;2686570;76;20271;-96
2023/05/03 02:27:56;;;;;;;;;;;6.84;23.31;;;;;;2686743;76;20273;-96
2023/05/03 02:31:26;;;;;;;;;;;6.66;23.53;;;;;;2686352;76;20289;-95
2023/05/03 02:34:54;;;;;;;;;;;6.68;23.65;;;;;;2686919;76;20286;-96
2023/05/03 02:38:22;;;;;;;;;;;6.54;24.04;;;;;;2687199;76;20275;-96
2023/05/03 02:41:50;;;;;;;;;;;6.53;24.40;;;;;;2686317;76;20325;-96
2023/05/03 02:45:19;;;;;;;;;;;6.42;25.73;;;;;;2686970;76;20297;-95
2023/05/03 02:48:47;;;;;;;;;;;6.45;26.36;;;;;;2686867;76;20266;-95
2023/05/03 02:52:16;;;;;;;;;;;6.61;26.46;;;;;;2686721;76;20273;-96
2023/05/03 02:55:44;;;;;;;;;;;6.52;27.10;;;;;;2686589;76;20322;-96
2023/05/03 02:59:12;;;;;;;;;;;6.46;28.03;;;;;;2687069;76;20263;-95
2023/05/03 03:02:40;;;;;;;;;;;6.53;29.18;;;;;;2687011;76;20267;-95
2023/05/03 03:06:08;;;;;;;;;;;6.66;29.75;;;;;;2687815;76;20291;-95
2023/05/03 03:09:36;;;;;;;;;;;6.48;31.12;;;;;;2687563;76;20284;-95
2023/05/03 03:13:04;;;;;;;;;;;6.51;31.49;;;;;;2687630;76;20264;-96
2023/05/03 03:16:32;;;;;;;;;;;6.37;31.90;;;;;;2687771;76;20289;-95
2023/05/03 03:20:04;;;;;;;;;;;6.34;32.74;;;;;;2687133;76;20281;-95
2023/05/03 03:23:30;;;;;;;;;;;6.36;32.93;;;;;;2686991;76;20253;-96
2023/05/03 03:26:58;;;;;;;;;;;6.45;33.00;;;;;;2687634;76;20413;-95
2023/05/03 03:30:26;;;;;;;;;;;6.67;33.00;;;;;;2687317;76;20253;-96
2023/05/03 03:33:55;;;;;;;;;;;6.72;32.54;;;;;;2687122;76;20340;-95
2023/05/03 03:37:23;;;;;;;;;;;6.75;32.51;;;;;;2687686;76;20254;-95
2023/05/03 03:40:53;;;;;;;;;;;6.93;33.05;;;;;;2685997;76;20327;-91
2023/05/03 03:44:21;;;;;;;;;;;7.12;33.91;;;;;;2682056;76;20293;-91
2023/05/03 03:47:56;;;;;;;;;;;7.20;33.87;;;;;;2679401;76;20316;-92
2023/05/03 03:51:25;;;;;;;;;;;7.34;34.23;;;;;;2680508;76;20751;-91
2023/05/03 03:54:53;;;;;;;;;;;7.45;33.81;;;;;;2679158;76;20294;-92
2023/05/03 03:58:24;;;;;;;;;;;7.44;33.38;;;;;;2681298;76;20932;-91
2023/05/03 04:01:52;;;;;;;;;;;7.42;33.45;;;;;;2682224;76;20304;-91
2023/05/03 04:05:21;;;;;;;;;;;7.43;33.31;;;;;;2682584;76;20303;-91
2023/05/03 04:08:58;;;;;;;;;;;7.49;33.38;;;;;;2684622;76;20370;-92
2023/05/03 04:12:26;;;;;;;;;;;7.53;33.25;;;;;;2684471;76;20296;-91
2023/05/03 04:16:03;;;;;;;;;;;7.50;32.83;;;;;;2683934;76;20318;-91
2023/05/03 04:19:31;;;;;;;;;;;7.59;33.38;;;;;;2684423;76;20323;-90
2023/05/03 04:23:00;;;;;;;;;;;7.47;32.04;;;;;;2684673;76;20332;-91
2023/05/03 04:26:28;;;;;;;;;;;7.56;32.54;;;;;;2685362;76;20339;-90
2023/05/03 04:29:57;;;;;;;;;;;7.67;33.24;;;;;;2685200;76;20335;-91
2023/05/03 04:33:29;;;;;;;;;;;7.87;34.50;;;;;;2684325;76;20404;-91
2023/05/03 04:36:59;;;;;;;;;;;8.03;34.42;;;;;;2683376;76;20341;-90
2023/05/03 04:40:27;;;;;;;;;;;8.19;34.52;;;;;;2682842;76;20799;-92
2023/05/03 04:43:55;;;;;;;;;;;8.22;33.62;;;;;;2680592;76;20348;-92
2023/05/03 04:47:24;;;;;;;;;;;8.39;34.55;;;;;;2682093;76;20355;-91
2023/05/03 04:50:52;;;;;;;;;;;8.39;32.74;;;;;;2680901;76;20359;-91
2023/05/03 04:54:20;;;;;;;;;;;8.58;34.32;;;;;;2683807;76;20324;-92
2023/05/03 04:57:49;;;;;;;;;;;8.63;33.70;;;;;;2682424;76;20334;-92
2023/05/03 05:01:17;;;;;;;;;;;8.72;33.27;;;;;;2673726;76;20372;-91
2023/05/03 05:04:45;;;;;;;;;;;8.83;33.54;;;;;;2673426;76;20369;-91
2023/05/03 05:08:13;;;;;;;;;;;9.08;34.98;;;;;;2675454;76;20371;-91
2023/05/03 05:11:41;;;;;;;;;;;9.32;34.95;;;;;;2675190;76;20325;-91
2023/05/03 05:15:09;;;;;;;;;;;9.52;35.37;;;;;;2675201;76;20363;-92
2023/05/03 05:18:37;;;;;;;;;;;9.55;33.55;;;;;;2675295;76;20837;-92
2023/05/03 05:22:06;;;;;;;;;;;9.65;33.99;;;;;;2674754;76;20356;-92
2023/05/03 05:25:43;;;;;;;;;;;9.74;33.63;;;;;;2675666;76;20406;-91
2023/05/03 05:29:08;;;;;;;;;;;9.95;35.12;;;;;;2674951;76;20689;-92
2023/05/03 05:32:36;;;;;;;;;;;10.13;35.39;;;;;;2673703;76;20369;-91
2023/05/03 05:36:05;;;;;;;;;;;10.36;35.39;;;;;;2674704;76;20727;-91
2023/05/03 05:39:33;;;;;;;;;;;10.50;34.94;;;;;;2672767;76;20305;-90
2023/05/03 05:43:01;;;;;;;;;;;10.55;34.71;;;;;;2672915;76;20655;-92
2023/05/03 05:46:29;;;;;;;;;;;10.59;34.73;;;;;;2673150;76;20346;-92
2023/05/03 05:49:57;;;;;;;;;;;10.73;34.85;;;;;;2673819;76;20328;-91
2023/05/03 05:53:28;;;;;;;;;;;10.95;34.86;;;;;;2673581;76;20347;-91
2023/05/03 05:56:56;;;;;;;;;;;10.86;33.28;;;;;;2674006;76;20320;-92
2023/05/03 06:00:25;;;;;;;;;;;10.96;33.67;;;;;;2673294;76;20336;-91
2023/05/03 06:03:54;;;;;;;;;;;11.05;33.72;;;;;;2673516;76;20368;-90
2023/05/03 06:07:23;;;;;;;;;;;11.25;33.89;;;;;;2673549;76;20318;-91
2023/05/03 06:10:52;;;;;;;;;;;11.34;33.89;;;;;;2674055;76;20343;-90
2023/05/03 06:14:20;;;;;;;;;;;11.58;34.57;;;;;;2674131;76;20332;-91
2023/05/03 06:17:48;;;;;;;;;;;11.81;33.93;;;;;;2673516;76;20349;-91
2023/05/03 06:21:21;;;;;;;;;;;11.87;32.29;;;;;;2673573;76;20362;-90
2023/05/03 06:24:46;;;;;;;;;;;11.75;32.02;;;;;;2674121;76;20337;-91
2023/05/03 06:28:14;;;;;;;;;;;11.61;32.71;;;;;;2673568;76;20327;-90
2023/05/03 06:31:42;;;;;;;;;;;11.57;32.80;;;;;;2673909;76;20342;-92
2023/05/03 06:35:11;;;;;;;;;;;11.42;32.80;;;;;;2673414;76;20352;-91
2023/05/03 06:38:39;;;;;;;;;;;11.40;33.70;;;;;;2677028;76;20361;-91
2023/05/03 06:42:07;;;;;;;;;;;11.54;34.12;;;;;;2679512;76;20310;-90
2023/05/03 11:50:00;;;;;;;;;;;15.85;24.97;;;;;;2674648;76;20506;-92
2023/05/03 11:53:28;;;;;;;;;;;16.11;25.16;;;;;;2674812;76;20352;-91
2023/05/03 11:56:57;;;;;;;;;;;16.32;24.63;;;;;;2674909;76;20770;-91
2023/05/03 12:00:25;;;;;;;;;;;16.42;23.89;;;;;;2674451;76;20293;-91
2023/05/03 12:03:53;;;;;;;;;;;16.44;24.08;;;;;;2676246;76;20531;-91
2023/05/03 12:07:22;;;;;;;;;;;16.40;23.77;;;;;;2681376;76;20316;-90
2023/05/03 12:10:50;;;;;;;;;;;16.46;24.89;;;;;;2674248;76;20337;-91
2023/05/03 12:14:18;;;;;;;;;;;16.85;25.71;;;;;;2675338;76;20350;-91
2023/05/03 12:17:46;;;;;;;;;;;16.93;24.69;;;;;;2675116;76;20339;-91
2023/05/03 12:21:15;;;;;;;;;;;16.94;25.46;;;;;;2674689;76;20350;-91
2023/05/03 12:24:45;;;;;;;;;;;17.36;24.95;;;;;;2674880;76;20363;-91
2023/05/03 12:28:13;;;;;;;;;;;18.18;24.20;;;;;;2675127;76;20668;-91
2023/05/03 12:31:41;;;;;;;;;;;18.23;21.52;;;;;;2674669;76;20708;-91
2023/05/03 12:35:10;;;;;;;;;;;18.43;21.97;;;;;;2675019;76;20398;-91
2023/05/03 12:38:38;;;;;;;;;;;18.30;20.98;;;;;;2674686;76;20395;-90
2023/05/03 12:42:07;;;;;;;;;;;18.08;21.53;;;;;;2674433;76;20358;-90
2023/05/03 12:45:35;;;;;;;;;;;17.85;22.32;;;;;;2674606;76;20378;-91
2023/05/03 12:49:03;;;;;;;;;;;17.55;20.69;;;;;;2674621;76;20351;-90
2023/05/03 12:52:31;;;;;;;;;;;17.55;21.83;;;;;;2674146;76;20392;-91
2023/05/03 12:56:00;;;;;;;;;;;17.46;21.95;;;;;;2674450;76;20369;-90
2023/05/03 12:59:28;;;;;;;;;;;17.81;21.28;;;;;;2674506;76;20407;-89
2023/05/03 13:02:56;;;;;;;;;;;18.17;21.63;;;;;;2673687;76;20339;-90
2023/05/03 13:10:10;;;;;;;;;;;18.85;18.64;;;;;;2674411;76;20401;-88
2023/05/03 13:13:38;;;;;;;;;;;18.63;17.78;;;;;;2673114;76;20754;-87
2023/05/03 13:17:07;;;;;;;;;;;18.42;17.85;;;;;;2673132;75;20466;-89
2023/05/03 13:20:35;;;;;;;;;;;18.09;15.64;;;;;;2672980;76;20450;-88
2023/05/03 13:24:03;;;;;;;;;;;17.96;16.30;;;;;;2671516;76;20437;-89
2023/05/03 13:27:32;;;;;;;;;;;18.03;17.89;;;;;;2672678;75;20420;-88
2023/05/03 13:31:01;;;;;;;;;;;18.06;15.70;;;;;;2670013;76;20306;-89
2023/05/03 13:34:29;;;;;;;;;;;18.00;15.34;;;;;;2672064;75;20307;-91
2023/05/03 13:37:57;;;;;;;;;;;18.09;13.69;;;;;;2672365;76;20298;-90
2023/05/03 13:41:41;;;;;;;;;;;18.32;13.45;;;;;;2673346;75;20474;-90
2023/05/03 13:44:59;;;;;;;;;;;18.21;14.12;;;;;;2673202;76;20547;-90
2023/05/03 13:48:27;;;;;;;;;;;18.11;12.64;;;;;;2676153;75;20356;-91
2023/05/03 13:51:55;;;;;;;;;;;18.09;11.49;;;;;;2676335;75;20966;-89
2023/05/03 13:55:25;;;;;;;;;;;18.23;9.54;;;;;;2671689;75;20464;-89
2023/05/03 13:58:54;;;;;;;;;;;18.22;9.91;;;;;;2672017;75;20849;-89
2023/05/03 14:02:26;;;;;;;;;;;18.09;10.82;;;;;;2673354;76;20433;-90
2023/05/03 14:05:54;;;;;;;;;;;18.13;8.47;;;;;;2672121;76;20435;-89
2023/05/03 14:09:22;;;;;;;;;;;18.72;10.08;;;;;;2671633;76;20341;-87
2023/05/03 14:12:51;;;;;;;;;;;19.24;10.79;;;;;;2669366;75;20295;-88
2023/05/03 14:16:19;;;;;;;;;;;19.55;9.95;;;;;;2673552;76;20302;-91
2023/05/03 14:19:47;;;;;;;;;;;19.36;8.71;;;;;;2672051;75;20447;-91
2023/05/03 14:23:15;;;;;;;;;;;19.30;7.82;;;;;;2671526;76;20420;-91
2023/05/03 14:26:47;;;;;;;;;;;19.50;10.42;;;;;;2672968;76;20476;-90
2023/05/03 14:30:15;;;;;;;;;;;24.32;5.78;;;;;;2672784;76;20391;-91
2023/05/03 14:33:43;;;;;;;;;;;26.79;4.68;;;;;;2671158;76;20317;-92
2023/05/03 14:37:11;;;;;;;;;;;29.46;0.04;;;;;;2672673;76;20321;-91
2023/05/03 14:40:40;;;;;;;;;;;31.09;117.35;;;;;;2670982;76;20495;-92
2023/05/03 14:44:08;;;;;;;;;;;32.42;111.16;;;;;;2669077;76;20502;-91
2023/05/03 14:47:37;;;;;;;;;;;33.52;109.91;;;;;;2671269;76;20419;-91
2023/05/03 14:51:05;;;;;;;;;;;34.65;106.71;;;;;;2670353;76;20432;-91
2023/05/03 14:54:33;;;;;;;;;;;35.36;104.69;;;;;;2671092;76;20976;-92
2023/05/03 14:58:01;;;;;;;;;;;33.66;106.25;;;;;;2670865;76;21277;-90
2023/05/03 15:01:29;;;;;;;;;;;27.36;107.75;;;;;;2671397;76;20483;-91
2023/05/03 15:04:57;;;;;;;;;;;27.94;112.12;;;;;;2671286;76;20626;-91
2023/05/03 15:08:26;;;;;;;;;;;30.34;112.01;;;;;;2668966;76;20435;-92
2023/05/03 15:11:54;;;;;;;;;;;29.60;107.25;;;;;;2669009;76;20435;-91
2023/05/03 15:15:22;;;;;;;;;;;32.46;103.73;;;;;;2668943;76;20434;-90
2023/05/03 15:18:50;;;;;;;;;;;32.83;105.72;;;;;;2670272;76;20424;-91
2023/05/03 15:22:18;;;;;;;;;;;31.20;104.09;;;;;;2668792;76;20439;-91
2023/05/03 15:25:46;;;;;;;;;;;30.96;106.01;;;;;;2670922;76;20305;-91
2023/05/03 15:29:14;;;;;;;;;;;32.98;104.42;;;;;;2667995;76;21386;-93
2023/05/03 15:32:43;;;;;;;;;;;34.07;96.81;;;;;;2669945;76;20336;-92
2023/05/03 15:36:11;;;;;;;;;;;34.12;89.97;;;;;;2670118;76;20440;-91
2023/05/03 15:39:39;;;;;;;;;;;29.11;97.87;;;;;;2670772;76;20298;-90
2023/05/03 15:43:07;;;;;;;;;;;25.33;102.61;;;;;;2671036;76;20800;-90
2023/05/03 15:46:41;;;;;;;;;;;25.13;107.59;;;;;;2671008;76;20435;-90
2023/05/03 15:50:05;;;;;;;;;;;29.48;102.67;;;;;;2669617;76;20928;-89
2023/05/03 15:53:35;;;;;;;;;;;31.46;103.21;;;;;;2679946;76;20342;-96
2023/05/03 15:57:12;;;;;;;;;;;32.71;103.20;;;;;;2675283;76;20416;-93
2023/05/03 16:00:41;;;;;;;;;;;33.74;99.01;;;;;;2673827;76;20415;-93
2023/05/03 16:04:09;;;;;;;;;;;34.08;94.61;;;;;;2671060;76;22146;-93
2023/05/03 16:07:40;;;;;;;;;;;34.59;92.52;;;;;;2672425;76;20442;-93
2023/05/03 16:11:15;;;;;;;;;;;34.70;88.00;;;;;;2670633;76;20439;-93
2023/05/03 16:14:38;;;;;;;;;;;35.14;87.57;;;;;;2671923;76;20480;-93
2023/05/03 16:18:06;;;;;;;;;;;35.30;88.73;;;;;;2672853;76;20443;-93
2023/05/03 16:21:34;;;;;;;;;;;34.98;89.60;;;;;;2672332;76;20514;-93
2023/05/03 16:25:06;;;;;;;;;;;34.57;88.50;;;;;;2673910;76;20890;-93
2023/05/03 16:28:32;;;;;;;;;;;34.15;88.86;;;;;;2673689;76;20895;-92
2023/05/03 16:32:08;;;;;;;;;;;33.20;84.36;;;;;;2673128;76;20880;-93
2023/05/03 16:35:30;;;;;;;;;;;33.44;86.30;;;;;;2673102;76;20424;-93
2023/05/03 16:38:58;;;;;;;;;;;33.67;87.70;;;;;;2672818;76;20469;-92
2023/05/03 16:42:27;;;;;;;;;;;33.30;86.05;;;;;;2669660;76;20468;-93
2023/05/03 16:45:55;;;;;;;;;;;33.28;85.58;;;;;;2670818;76;20435;-93
2023/05/03 16:49:23;;;;;;;;;;;33.53;87.18;;;;;;2669104;76;20416;-93
2023/05/03 16:52:51;;;;;;;;;;;32.84;88.31;;;;;;2670007;76;20478;-93
2023/05/03 16:56:25;;;;;;;;;;;32.69;86.20;;;;;;2670337;76;20415;-92
2023/05/03 16:59:50;;;;;;;;;;;32.99;87.80;;;;;;2670179;76;20625;-93
2023/05/03 17:03:18;;;;;;;;;;;32.43;88.38;;;;;;2671494;76;20426;-94
2023/05/03 17:06:46;;;;;;;;;;;31.68;87.88;;;;;;2671105;76;20451;-92
2023/05/03 17:10:19;;;;;;;;;;;30.53;85.59;;;;;;2670065;76;20456;-92
2023/05/03 17:13:46;;;;;;;;;;;29.79;87.34;;;;;;2674037;76;20450;-93
2023/05/03 17:17:14;;;;;;;;;;;29.66;89.15;;;;;;2670122;76;21006;-93
2023/05/03 17:20:42;;;;;;;;;;;29.26;91.18;;;;;;2671013;76;20450;-93
2023/05/03 17:24:10;;;;;;;;;;;28.47;88.93;;;;;;2670521;76;20480;-94
2023/05/03 17:27:38;;;;;;;;;;;28.12;90.48;;;;;;2670593;76;20489;-93
2023/05/03 17:31:06;;;;;;;;;;;24.75;95.47;;;;;;2670799;76;20411;-93
2023/05/03 17:34:35;;;;;;;;;;;22.37;100.21;;;;;;2669770;76;20442;-93
2023/05/03 17:38:06;;;;;;;;;;;21.03;103.04;;;;;;2671011;76;20418;-93
2023/05/03 17:41:39;;;;;;;;;;;19.92;106.72;;;;;;2670169;76;20938;-93
2023/05/03 17:45:04;;;;;;;;;;;19.22;109.00;;;;;;2671152;76;20453;-93
2023/05/03 17:48:32;;;;;;;;;;;18.69;110.68;;;;;;2670897;76;20462;-93
2023/05/03 17:52:03;;;;;;;;;;;18.25;111.89;;;;;;2670822;76;20467;-92
2023/05/03 17:55:32;;;;;;;;;;;17.92;113.18;;;;;;2669872;76;20419;-92
2023/05/03 17:59:00;;;;;;;;;;;17.60;114.64;;;;;;2671172;76;20317;-93
2023/05/03 18:02:29;;;;;;;;;;;17.22;115.93;;;;;;2670552;76;20955;-91
2023/05/03 18:09:36;;;;;;;;;;;16.56;117.73;;;;;;2670244;76;20999;-93
2023/05/03 18:13:04;;;;;;;;;;;16.27;118.44;;;;;;2670999;76;20476;-92
2023/05/03 18:16:33;;;;;;;;;;;16.03;-5.57;;;;;;2670179;76;20432;-93
2023/05/03 18:20:05;;;;;;;;;;;15.77;-4.86;;;;;;2669807;76;20481;-93
2023/05/03 18:23:43;;;;;;;;;;;15.52;-4.21;;;;;;2670346;76;20450;-93
2023/05/03 18:27:13;;;;;;;;;;;15.30;-3.40;;;;;;2670173;76;20438;-92
2023/05/03 18:30:42;;;;;;;;;;;15.09;-2.64;;;;;;2669841;76;20420;-92
2023/05/03 18:34:15;;;;;;;;;;;14.88;-2.12;;;;;;2669542;76;20447;-92
2023/05/03 18:37:49;;;;;;;;;;;14.67;-1.51;;;;;;2669614;76;20438;-93
2023/05/03 18:41:18;;;;;;;;;;;14.52;-0.80;;;;;;2669656;76;20504;-91
2023/05/03 18:44:46;;;;;;;;;;;14.37;0.13;;;;;;2670348;76;20432;-93
2023/05/03 18:48:14;;;;;;;;;;;14.26;0.71;;;;;;2670964;76;20458;-92
2023/05/03 18:51:43;;;;;;;;;;;14.13;1.39;;;;;;2671114;76;20417;-92
2023/05/03 18:55:13;;;;;;;;;;;13.99;1.94;;;;;;2670096;76;20428;-93
2023/05/03 18:58:46;;;;;;;;;;;13.85;2.31;;;;;;2668993;76;20448;-92
2023/05/03 19:02:15;;;;;;;;;;;13.71;2.78;;;;;;2668973;76;20460;-92
2023/05/03 19:05:44;;;;;;;;;;;13.59;3.32;;;;;;2669345;76;20429;-92
2023/05/03 19:09:12;;;;;;;;;;;13.48;4.06;;;;;;2669752;76;20792;-92
2023/05/03 19:12:42;;;;;;;;;;;13.38;4.68;;;;;;2670408;76;20495;-92
2023/05/03 19:16:17;;;;;;;;;;;13.31;5.09;;;;;;2670795;76;20448;-92
2023/05/03 19:19:48;;;;;;;;;;;13.16;5.53;;;;;;2671002;76;20550;-91
2023/05/03 19:23:19;;;;;;;;;;;13.07;5.80;;;;;;2670305;76;20503;-92
2023/05/03 19:26:50;;;;;;;;;;;13.00;6.22;;;;;;2670994;76;20427;-92
2023/05/03 19:30:19;;;;;;;;;;;12.89;6.63;;;;;;2671115;76;20518;-92
2023/05/03 19:33:47;;;;;;;;;;;12.84;7.13;;;;;;2671238;76;20426;-92
2023/05/03 19:37:15;;;;;;;;;;;12.74;7.34;;;;;;2670264;76;20383;-93
2023/05/03 19:40:43;;;;;;;;;;;12.69;8.09;;;;;;2671563;76;20700;-93
2023/05/03 19:44:11;;;;;;;;;;;12.61;8.82;;;;;;2671452;76;20416;-92
2023/05/03 19:47:40;;;;;;;;;;;12.56;8.79;;;;;;2671442;76;20466;-93
2023/05/03 19:51:14;;;;;;;;;;;12.52;9.91;;;;;;2671745;76;20357;-93
2023/05/03 19:54:41;;;;;;;;;;;12.43;10.56;;;;;;2670264;76;20943;-92
2023/05/03 19:58:09;;;;;;;;;;;12.38;10.69;;;;;;2669425;76;20528;-92
2023/05/03 20:01:37;;;;;;;;;;;12.30;10.50;;;;;;2668610;76;20423;-92
2023/05/03 20:05:09;;;;;;;;;;;12.23;10.99;;;;;;2669648;76;20455;-90
2023/05/03 20:08:37;;;;;;;;;;;12.18;11.29;;;;;;2669676;76;20575;-92
2023/05/03 20:12:14;;;;;;;;;;;12.15;11.75;;;;;;2668745;76;20931;-92
2023/05/03 20:15:41;;;;;;;;;;;12.08;12.26;;;;;;2669501;76;20449;-91
2023/05/03 20:19:09;;;;;;;;;;;12.04;12.78;;;;;;2669958;76;20453;-91
2023/05/03 20:22:41;;;;;;;;;;;12.00;12.63;;;;;;2670259;76;20438;-91
2023/05/03 20:26:09;;;;;;;;;;;11.94;12.98;;;;;;2669821;76;20434;-91
2023/05/03 20:29:37;;;;;;;;;;;11.88;13.14;;;;;;2670232;76;20426;-90
2023/05/03 20:33:05;;;;;;;;;;;11.83;13.16;;;;;;2670029;76;20416;-90
2023/05/03 20:36:34;;;;;;;;;;;11.75;13.25;;;;;;2669914;76;20430;-91
2023/05/03 20:40:02;;;;;;;;;;;11.70;13.58;;;;;;2670391;76;20452;-91
2023/05/03 20:43:30;;;;;;;;;;;11.66;13.74;;;;;;2669152;76;20473;-90
2023/05/03 20:46:58;;;;;;;;;;;11.58;14.08;;;;;;2670053;76;20363;-91
2023/05/03 20:50:26;;;;;;;;;;;11.53;14.31;;;;;;2669829;76;20445;-91
2023/05/03 20:53:54;;;;;;;;;;;11.49;13.98;;;;;;2670789;76;20308;-91
2023/05/03 20:57:23;;;;;;;;;;;11.40;13.65;;;;;;2671066;76;20452;-91
2023/05/03 21:00:51;;;;;;;;;;;11.34;13.49;;;;;;2671098;76;20856;-91
2023/05/03 21:04:19;;;;;;;;;;;11.27;13.42;;;;;;2668753;76;20424;-91
2023/05/03 21:07:50;;;;;;;;;;;11.20;13.32;;;;;;2668728;76;20440;-91
2023/05/03 21:11:18;;;;;;;;;;;11.13;13.09;;;;;;2670936;76;20694;-91
2023/05/03 21:14:48;;;;;;;;;;;11.04;12.87;;;;;;2670551;76;20919;-91
2023/05/03 21:18:16;;;;;;;;;;;10.95;12.90;;;;;;2672187;76;20956;-90
2023/05/03 21:21:45;;;;;;;;;;;10.87;12.84;;;;;;2671927;76;20987;-92
2023/05/03 21:25:13;;;;;;;;;;;10.81;12.96;;;;;;2671107;76;21189;-91
2023/05/03 21:28:41;;;;;;;;;;;10.77;13.14;;;;;;2670588;76;20983;-90
2023/05/03 21:32:09;;;;;;;;;;;10.73;13.24;;;;;;2671992;76;20791;-92
2023/05/03 21:35:37;;;;;;;;;;;10.68;13.47;;;;;;2671185;76;20429;-92
2023/05/03 21:39:05;;;;;;;;;;;10.63;13.74;;;;;;2671122;76;20436;-92
2023/05/03 21:42:33;;;;;;;;;;;10.59;14.16;;;;;;2670414;76;20445;-92
2023/05/03 21:46:02;;;;;;;;;;;10.53;14.98;;;;;;2672125;76;20424;-92
2023/05/03 21:49:30;;;;;;;;;;;10.45;15.44;;;;;;2671254;76;20432;-91
2023/05/03 21:52:59;;;;;;;;;;;10.45;15.86;;;;;;2671280;76;20415;-93
2023/05/03 21:56:27;;;;;;;;;;;10.44;16.20;;;;;;2670350;76;20429;-92
2023/05/03 21:59:55;;;;;;;;;;;10.37;16.96;;;;;;2670955;76;20443;-92
2023/05/03 22:03:23;;;;;;;;;;;10.38;17.32;;;;;;2671041;76;20415;-93
2023/05/03 22:06:51;;;;;;;;;;;10.35;17.49;;;;;;2669754;76;20945;-92
2023/05/03 22:10:19;;;;;;;;;;;10.31;17.44;;;;;;2670661;76;20493;-92
2023/05/03 22:13:47;;;;;;;;;;;10.31;17.23;;;;;;2671844;76;20425;-91
2023/05/03 22:17:15;;;;;;;;;;;10.27;16.97;;;;;;2671085;76;20993;-90
2023/05/03 22:20:43;;;;;;;;;;;10.24;17.03;;;;;;2670367;76;20489;-92
2023/05/03 22:24:12;;;;;;;;;;;10.21;17.27;;;;;;2670825;76;20337;-92
2023/05/03 22:27:40;;;;;;;;;;;10.18;17.38;;;;;;2670375;76;20465;-92
2023/05/03 22:31:08;;;;;;;;;;;10.13;17.04;;;;;;2671120;76;20311;-92
2023/05/03 22:34:36;;;;;;;;;;;10.06;16.32;;;;;;2671201;76;20469;-92
2023/05/03 22:38:04;;;;;;;;;;;9.98;15.67;;;;;;2671398;76;20297;-91
2023/05/03 22:41:34;;;;;;;;;;;9.86;15.16;;;;;;2671218;76;20495;-92
2023/05/03 22:45:03;;;;;;;;;;;9.79;14.93;;;;;;2671060;76;20404;-91
2023/05/03 22:48:32;;;;;;;;;;;9.75;15.10;;;;;;2671075;76;20314;-92
2023/05/03 22:52:02;;;;;;;;;;;9.67;15.08;;;;;;2672020;76;20453;-92
2023/05/03 22:55:33;;;;;;;;;;;9.65;15.34;;;;;;2672485;76;20348;-91
2023/05/03 22:59:01;;;;;;;;;;;9.63;16.03;;;;;;2670917;76;20290;-91
2023/05/03 23:02:29;;;;;;;;;;;9.60;16.10;;;;;;2671669;76;20312;-92
2023/05/03 23:05:57;;;;;;;;;;;9.57;15.87;;;;;;2671933;76;20395;-92
2023/05/03 23:09:25;;;;;;;;;;;9.52;15.98;;;;;;2670807;76;20484;-91
2023/05/03 23:12:54;;;;;;;;;;;9.51;16.30;;;;;;2670981;76;20453;-92
2023/05/03 23:16:22;;;;;;;;;;;9.51;16.74;;;;;;2670102;76;20561;-92
2023/05/03 23:19:50;;;;;;;;;;;9.45;16.78;;;;;;2671125;76;20316;-91
2023/05/03 23:23:18;;;;;;;;;;;9.41;16.19;;;;;;2671021;76;20294;-91
2023/05/03 23:26:46;;;;;;;;;;;9.35;15.78;;;;;;2670332;76;20401;-91
2023/05/03 23:30:14;;;;;;;;;;;9.30;15.52;;;;;;2669655;76;20467;-91
2023/05/03 23:33:42;;;;;;;;;;;9.25;15.24;;;;;;2669954;76;20430;-91
2023/05/03 23:37:10;;;;;;;;;;;9.19;14.97;;;;;;2670929;76;20432;-91
2023/05/03 23:40:39;;;;;;;;;;;9.11;14.69;;;;;;2670902;76;20406;-91
2023/05/03 23:44:07;;;;;;;;;;;9.06;14.72;;;;;;2671317;76;20466;-92
2023/05/03 23:47:35;;;;;;;;;;;9.02;14.97;;;;;;2671487;76;20448;-91
2023/05/03 23:51:03;;;;;;;;;;;9.02;16.39;;;;;;2670769;76;20454;-91
2023/05/03 23:54:32;;;;;;;;;;;9.00;17.10;;;;;;2670653;76;20965;-91
2023/05/03 23:58:00;;;;;;;;;;;9.02;16.84;;;;;;2670891;76;20445;-92
